Time;durP1;ratioP1;P1;durP2;ratioP2;P2;SDS_P1;SDS_P2;PMS_P1;PMS_P2;Temp;Humidity;BMP_temperature;BMP_pressure;BME280_temperature;BME280_humidity;BME280_pressure;Samples;Min_cycle;Max_cycle;Signal;HPM_P1;HPM_P2
2023/04/07 00:00:03;;;;;;;16.00;14.27;;;;;;;1.71;60.20;92490.38;5110368;28;20306;-74
2023/04/07 00:02:29;;;;;;;15.30;13.90;;;;;;;1.79;60.25;92502.88;5109151;28;20188;-74
2023/04/07 00:04:56;;;;;;;15.10;13.67;;;;;;;1.59;60.88;92480.88;5111446;27;20231;-73
2023/04/07 00:07:21;;;;;;;15.40;13.80;;;;;;;1.79;60.71;92508.78;5112399;28;20184;-74
2023/04/07 00:09:47;;;;;;;15.87;14.30;;;;;;;1.81;59.91;92501.63;5108923;28;20219;-74
2023/04/07 00:12:12;;;;;;;15.93;14.73;;;;;;;1.56;61.86;92481.34;5108970;28;20191;-74
2023/04/07 00:14:37;;;;;;;13.40;12.30;;;;;;;1.67;59.99;92499.56;5109127;28;20216;-74
2023/04/07 00:17:03;;;;;;;15.23;13.93;;;;;;;1.64;60.47;92509.28;5110566;28;20273;-74
2023/04/07 00:19:28;;;;;;;13.97;12.87;;;;;;;1.61;60.01;92491.72;5112979;27;20183;-73
2023/04/07 00:21:54;;;;;;;13.77;12.53;;;;;;;1.58;61.28;92497.34;5113444;28;20183;-74
2023/04/07 00:24:19;;;;;;;14.33;13.23;;;;;;;1.51;62.47;92486.38;5112500;27;20179;-74
2023/04/07 00:26:45;;;;;;;14.07;13.03;;;;;;;1.67;59.48;92499.56;5112504;28;20196;-74
2023/04/07 00:29:10;;;;;;;14.60;13.43;;;;;;;1.67;59.63;92489.28;5112903;28;20195;-74
2023/04/07 00:31:35;;;;;;;15.40;13.90;;;;;;;1.77;59.46;92499.75;5112778;28;20215;-73
2023/04/07 00:34:01;;;;;;;15.53;14.03;;;;;;;1.71;58.87;92480.06;5113697;28;20223;-74
2023/04/07 00:36:27;;;;;;;13.50;12.47;;;;;;;1.60;59.34;92479.84;5111867;27;20279;-74
2023/04/07 00:38:52;;;;;;;15.57;13.20;;;;;;;1.49;61.12;92472.19;5111401;28;20184;-74
2023/04/07 00:41:18;;;;;;;16.60;15.10;;;;;;;1.83;61.07;92493.69;5112455;28;20509;-73
2023/04/07 00:43:44;;;;;;;15.37;13.90;;;;;;;1.80;60.69;92494.13;5113205;28;20184;-74
2023/04/07 00:46:10;;;;;;;14.87;13.57;;;;;;;1.58;60.71;92491.41;5113373;28;20242;-74
2023/04/07 00:48:36;;;;;;;15.27;14.07;;;;;;;1.59;60.13;92493.75;5113741;28;20188;-75
2023/04/07 00:51:02;;;;;;;15.17;13.90;;;;;;;1.45;59.80;92473.63;5112781;28;20219;-75
2023/04/07 00:53:28;;;;;;;15.47;14.07;;;;;;;1.60;60.27;92502.25;5112603;28;20184;-75
2023/04/07 00:55:53;;;;;;;15.37;12.83;;;;;;;1.62;60.19;92492.50;5111741;27;20250;-75
2023/04/07 00:58:18;;;;;;;15.10;13.90;;;;;;;1.46;60.46;92465.69;5112458;28;20267;-75
2023/04/07 01:01:08;;;;;;;15.33;14.23;;;;;;;1.64;60.20;92491.28;5112641;27;20736;-75
2023/04/07 01:03:43;;;;;;;13.83;12.60;;;;;;;1.70;59.17;92491.38;5110558;28;20216;-75
2023/04/07 01:06:14;;;;;;;15.00;13.77;;;;;;;1.63;60.51;92492.25;5113170;28;20291;-75
2023/04/07 01:08:55;;;;;;;14.70;13.40;;;;;;;1.70;59.17;92499.88;5111595;28;20191;-75
2023/04/07 01:11:25;;;;;;;14.10;13.07;;;;;;;1.75;58.86;92492.25;5111489;28;20231;-75
2023/04/07 01:13:53;;;;;;;14.93;13.63;;;;;;;1.71;58.80;92492.94;5112273;28;20191;-73
2023/04/07 01:16:25;;;;;;;15.47;14.23;;;;;;;1.68;58.51;92500.09;5113290;28;20224;-75
2023/04/07 01:18:54;;;;;;;14.33;13.23;;;;;;;1.75;58.69;92483.75;5112257;28;20188;-76
2023/04/07 01:21:26;;;;;;;14.83;13.30;;;;;;;1.76;60.01;92477.59;5112601;28;20239;-75
2023/04/07 01:24:15;;;;;;;14.30;13.30;;;;;;;1.83;59.93;92493.69;5110986;28;20212;-75
2023/04/07 01:26:41;;;;;;;14.20;12.83;;;;;;;1.78;59.03;92486.66;5111819;28;20228;-75
2023/04/07 01:29:07;;;;;;;15.97;14.43;;;;;;;1.79;59.51;92482.28;5111214;28;20164;-76
2023/04/07 01:31:34;;;;;;;14.23;13.23;;;;;;;1.86;58.88;92480.34;5092982;28;20232;-75
2023/04/07 01:34:02;;;;;;;13.27;12.27;;;;;;;1.86;58.22;92483.72;5091597;28;20216;-75
2023/04/07 01:36:30;;;;;;;15.73;14.23;;;;;;;1.82;57.71;92481.84;5108598;28;20223;-75
2023/04/07 01:38:58;;;;;;;15.00;13.50;;;;;;;1.48;58.10;92411.44;5113328;28;20240;-75
2023/04/07 01:41:24;;;;;;;16.10;14.80;;;;;;;2.05;59.57;92476.59;5111779;27;20230;-75
2023/04/07 01:43:51;;;;;;;15.57;14.20;;;;;;;1.91;57.30;92465.81;5109083;28;20204;-75
2023/04/07 01:46:16;;;;;;;16.30;14.73;;;;;;;1.67;56.39;92413.63;5110253;27;20214;-75
2023/04/07 01:48:42;;;;;;;13.73;12.73;;;;;;;2.13;57.73;92464.16;5113216;28;20184;-75
2023/04/07 01:51:10;;;;;;;13.73;12.63;;;;;;;2.07;55.60;92464.28;5111833;28;20287;-75
2023/04/07 01:53:37;;;;;;;15.57;14.23;;;;;;;1.97;55.58;92449.44;5111391;28;20191;-75
2023/04/07 01:56:03;;;;;;;15.43;14.20;;;;;;;2.02;54.96;92462.41;5111647;28;20224;-75
2023/04/07 01:58:29;;;;;;;13.47;12.37;;;;;;;1.98;56.61;92437.34;5110409;28;20199;-75
2023/04/07 02:00:54;;;;;;;14.30;12.80;;;;;;;2.20;55.22;92464.78;5110397;28;20231;-75
2023/04/07 02:03:26;;;;;;;15.37;13.93;;;;;;;2.17;55.89;92464.44;5110222;28;20247;-75
2023/04/07 02:05:56;;;;;;;13.40;12.40;;;;;;;2.11;54.36;92460.22;5110187;27;20219;-75
2023/04/07 02:08:25;;;;;;;14.47;13.23;;;;;;;2.10;55.10;92453.53;5110502;28;20184;-75
2023/04/07 02:10:52;;;;;;;14.57;13.13;;;;;;;2.02;55.62;92459.03;5110164;28;20267;-75
2023/04/07 02:13:19;;;;;;;14.40;13.20;;;;;;;2.00;56.59;92458.47;5111065;28;20192;-75
2023/04/07 02:15:47;;;;;;;16.17;14.53;;;;;;;2.10;56.50;92467.16;5110959;27;20261;-75
2023/04/07 02:18:14;;;;;;;14.50;13.27;;;;;;;2.07;56.73;92461.72;5110067;28;20196;-75
2023/04/07 02:20:42;;;;;;;15.83;14.40;;;;;;;2.04;56.28;92470.66;5110131;28;20235;-75
2023/04/07 02:23:09;;;;;;;14.90;13.60;;;;;;;1.88;56.14;92439.75;5110762;28;20176;-75
2023/04/07 02:25:37;;;;;;;14.27;13.03;;;;;;;2.10;57.29;92461.25;5110537;27;20244;-75
2023/04/07 02:28:02;;;;;;;14.20;13.03;;;;;;;2.16;55.84;92468.03;5109850;28;20214;-75
2023/04/07 02:30:28;;;;;;;13.37;12.23;;;;;;;2.13;56.31;92460.78;5110355;28;20224;-74
2023/04/07 02:32:53;;;;;;;14.73;13.53;;;;;;;2.16;55.62;92457.75;5112481;28;20176;-75
2023/04/07 02:35:19;;;;;;;14.07;13.00;;;;;;;2.15;56.20;92456.19;5109704;28;20235;-75
2023/04/07 02:37:46;;;;;;;16.07;14.47;;;;;;;2.14;56.17;92454.63;5111440;28;20197;-75
2023/04/07 02:40:11;;;;;;;13.87;12.77;;;;;;;2.13;55.12;92447.91;5110328;28;20228;-76
2023/04/07 02:42:37;;;;;;;14.50;13.10;;;;;;;2.31;55.20;92465.72;5112167;28;20179;-75
2023/04/07 02:45:03;;;;;;;14.13;12.87;;;;;;;2.26;55.71;92469.00;5109688;28;20227;-75
2023/04/07 02:47:29;;;;;;;14.80;13.50;;;;;;;2.35;56.91;92462.44;5110064;28;20253;-75
2023/04/07 02:49:55;;;;;;;13.73;12.73;;;;;;;2.35;56.25;92456.53;5110775;28;20875;-75
2023/04/07 02:52:20;;;;;;;13.50;12.50;;;;;;;2.26;55.02;92452.75;5110629;28;20168;-75
2023/04/07 02:54:46;;;;;;;13.77;12.43;;;;;;;1.89;55.62;92382.09;5110243;28;20234;-75
2023/04/07 02:57:12;;;;;;;14.60;13.47;;;;;;;2.36;55.75;92464.03;5110006;28;20188;-75
2023/04/07 02:59:38;;;;;;;14.37;13.17;;;;;;;2.05;57.98;92418.19;5110001;28;20263;-75
2023/04/07 03:02:03;;;;;;;15.47;13.87;;;;;;;2.39;55.94;92478.22;5110662;28;20220;-75
2023/04/07 03:04:28;;;;;;;15.20;13.97;;;;;;;2.34;55.32;92473.78;5109173;28;20188;-76
2023/04/07 03:06:55;;;;;;;13.97;12.83;;;;;;;2.44;56.61;92470.59;5091539;28;20181;-75
2023/04/07 03:09:20;;;;;;;15.80;14.37;;;;;;;2.41;56.07;92487.28;5091098;28;20189;-76
2023/04/07 03:11:46;;;;;;;13.80;12.67;;;;;;;2.25;56.10;92446.84;5091343;28;20187;-75
2023/04/07 03:14:11;;;;;;;13.40;12.40;;;;;;;2.48;56.04;92471.69;5089593;28;20280;-75
2023/04/07 03:16:37;;;;;;;14.00;12.80;;;;;;;2.57;56.89;92476.22;5108811;28;20224;-75
2023/04/07 03:19:02;;;;;;;13.97;12.73;;;;;;;2.36;55.85;92466.59;5110416;28;20192;-75
2023/04/07 03:21:28;;;;;;;14.43;13.33;;;;;;;2.37;55.86;92465.59;5109869;28;20219;-75
2023/04/07 03:23:54;;;;;;;14.20;13.00;;;;;;;2.40;56.08;92490.09;5109808;28;20241;-75
2023/04/07 03:26:20;;;;;;;13.03;11.93;;;;;;;2.37;56.88;92473.31;5111584;28;20934;-75
2023/04/07 03:28:46;;;;;;;13.60;12.50;;;;;;;2.38;56.40;92474.09;5109340;28;20192;-75
2023/04/07 03:31:11;;;;;;;15.37;13.93;;;;;;;2.56;56.42;92481.59;5092681;28;20226;-76
2023/04/07 03:33:36;;;;;;;14.27;13.23;;;;;;;2.52;57.99;92470.22;5088309;28;20209;-75
2023/04/07 03:36:02;;;;;;;14.80;13.70;;;;;;;2.40;55.85;92449.66;5088778;28;20849;-75
2023/04/07 03:38:27;;;;;;;14.40;13.37;;;;;;;2.50;57.87;92474.81;5090786;28;20232;-75
2023/04/07 03:40:53;;;;;;;15.47;14.07;;;;;;;2.37;59.61;92450.13;5089126;28;20224;-76
2023/04/07 03:43:18;;;;;;;14.00;12.90;;;;;;;2.19;57.04;92434.09;5090794;28;20201;-76
2023/04/07 03:45:44;;;;;;;13.77;12.57;;;;;;;2.18;57.03;92460.88;5088058;28;20244;-76
2023/04/07 03:48:10;;;;;;;13.63;12.67;;;;;;;1.95;58.40;92446.31;5089017;28;20220;-78
2023/04/07 03:50:36;;;;;;;14.80;13.50;;;;;;;1.87;59.22;92440.75;5086586;28;20225;-75
2023/04/07 03:53:01;;;;;;;14.33;13.37;;;;;;;1.68;59.23;92422.16;5088506;28;20185;-74
2023/04/07 03:55:27;;;;;;;13.97;12.93;;;;;;;2.03;58.64;92458.00;5083155;28;20231;-73
2023/04/07 03:57:52;;;;;;;13.70;12.70;;;;;;;1.97;58.82;92440.94;5085959;28;20191;-74
2023/04/07 04:00:18;;;;;;;14.23;12.80;;;;;;;2.08;56.94;92463.25;5091347;28;20228;-72
2023/04/07 04:02:44;;;;;;;13.73;12.63;;;;;;;1.95;58.94;92442.94;5091254;28;20204;-75
2023/04/07 04:05:09;;;;;;;14.37;13.27;;;;;;;1.87;57.83;92435.63;5091457;28;20220;-74
2023/04/07 04:07:35;;;;;;;13.57;12.67;;;;;;;2.03;57.92;92463.97;5088293;28;20286;-73
2023/04/07 04:10:00;;;;;;;13.77;12.67;;;;;;;2.11;58.52;92461.00;5092073;28;20220;-72
2023/04/07 04:12:26;;;;;;;14.10;12.80;;;;;;;2.03;57.78;92453.66;5095704;28;20188;-72
2023/04/07 04:14:51;;;;;;;13.37;12.27;;;;;;;2.18;58.32;92469.38;5090671;28;20224;-72
2023/04/07 04:17:17;;;;;;;13.77;12.67;;;;;;;2.05;57.37;92458.56;5094880;28;20252;-69
2023/04/07 04:19:42;;;;;;;13.03;12.10;;;;;;;2.23;57.17;92466.88;5097438;28;20222;-70
2023/04/07 04:22:07;;;;;;;12.97;11.97;;;;;;;2.18;57.45;92445.44;5099551;28;20196;-72
2023/04/07 04:24:33;;;;;;;14.33;13.27;;;;;;;2.34;57.72;92470.41;5097654;28;20237;-72
2023/04/07 04:26:58;;;;;;;14.33;13.27;;;;;;;2.38;55.84;92472.28;5088437;28;20193;-72
2023/04/07 04:29:23;;;;;;;14.40;13.20;;;;;;;2.45;56.02;92469.56;5088250;28;20185;-70
2023/04/07 04:31:49;;;;;;;13.80;12.70;;;;;;;2.31;56.54;92432.25;5099702;28;20181;-72
2023/04/07 04:34:14;;;;;;;13.80;12.80;;;;;;;2.63;57.19;92461.63;5096369;28;20208;-72
2023/04/07 04:36:40;;;;;;;12.73;11.70;;;;;;;2.85;56.23;92488.25;5086384;28;20223;-73
2023/04/07 04:39:05;;;;;;;14.07;12.77;;;;;;;2.89;54.55;92487.56;5088599;28;20192;-70
2023/04/07 04:41:31;;;;;;;13.53;12.53;;;;;;;2.82;55.55;92489.50;5088159;28;20216;-71
2023/04/07 04:43:56;;;;;;;15.17;13.03;;;;;;;2.67;54.05;92480.75;5087870;28;20196;-71
2023/04/07 04:46:21;;;;;;;13.87;12.87;;;;;;;3.01;55.01;92497.78;5089482;28;20227;-71
2023/04/07 04:48:47;;;;;;;13.50;12.37;;;;;;;2.95;54.92;92498.72;5087490;28;20185;-70
2023/04/07 04:51:12;;;;;;;13.53;12.27;;;;;;;2.92;53.53;92496.63;5103244;28;20306;-70
2023/04/07 04:53:38;;;;;;;15.00;14.00;;;;;;;2.89;54.02;92499.66;5109377;28;20248;-70
2023/04/07 04:56:03;;;;;;;14.13;13.03;;;;;;;3.06;53.98;92484.97;5106732;28;20250;-71
2023/04/07 04:58:29;;;;;;;14.77;13.33;;;;;;;2.98;53.89;92503.41;5107568;28;20172;-72
2023/04/07 05:00:56;;;;;;;13.73;12.67;;;;;;;2.87;53.44;92489.59;5106804;28;20254;-70
2023/04/07 05:03:23;;;;;;;13.70;12.63;;;;;;;3.34;53.14;92508.06;5101705;28;20192;-68
2023/04/07 05:05:49;;;;;;;14.07;12.83;;;;;;;3.41;53.80;92510.47;5111770;28;20219;-71
2023/04/07 05:08:14;;;;;;;13.83;12.70;;;;;;;3.46;52.39;92489.88;5110514;28;20208;-72
2023/04/07 05:10:40;;;;;;;12.97;11.87;;;;;;;3.95;53.82;92515.59;5109898;28;20276;-72
2023/04/07 05:13:05;;;;;;;13.80;12.80;;;;;;;4.01;51.49;92512.03;5110142;28;20180;-69
2023/04/07 05:15:30;;;;;;;13.53;12.53;;;;;;;4.09;50.36;92506.44;5110558;28;20220;-74
2023/04/07 05:17:56;;;;;;;12.83;11.93;;;;;;;4.32;50.59;92519.09;5112255;28;20191;-75
2023/04/07 05:20:21;;;;;;;13.50;12.47;;;;;;;4.48;49.31;92515.63;5112229;28;20227;-76
2023/04/07 05:22:46;;;;;;;13.07;11.90;;;;;;;4.03;51.15;92520.31;5113498;28;20529;-75
2023/04/07 05:25:12;;;;;;;14.13;12.87;;;;;;;4.37;50.46;92529.47;5112006;28;20682;-75
2023/04/07 05:27:37;;;;;;;19.00;15.47;;;;;;;4.73;52.76;92522.88;5112589;28;20180;-75
2023/04/07 05:30:03;;;;;;;22.27;15.17;;;;;;;4.35;53.27;92505.69;5111363;28;20219;-76
2023/04/07 05:32:28;;;;;;;17.10;15.50;;;;;;;3.82;56.95;92515.94;5113343;28;20205;-76
2023/04/07 05:34:54;;;;;;;16.80;15.03;;;;;;;4.08;55.00;92522.94;5112869;28;20220;-76
2023/04/07 05:37:20;;;;;;;15.73;14.43;;;;;;;4.68;53.90;92533.94;5111745;28;20202;-76
2023/04/07 05:39:45;;;;;;;16.00;14.60;;;;;;;4.94;52.73;92527.16;5111223;28;20253;-76
2023/04/07 05:42:10;;;;;;;16.13;14.63;;;;;;;4.95;53.64;92529.50;5112206;28;20255;-76
2023/04/07 05:44:36;;;;;;;21.33;15.23;;;;;;;5.29;52.90;92526.69;5110963;28;20259;-76
2023/04/07 05:47:04;;;;;;;16.83;15.00;;;;;;;5.45;51.45;92528.34;5111168;28;20242;-76
2023/04/07 05:49:30;;;;;;;20.23;16.10;;;;;;;5.14;51.89;92498.88;5111257;28;20212;-75
2023/04/07 05:51:56;;;;;;;16.57;15.10;;;;;;;5.18;52.51;92523.25;5112215;28;20199;-76
2023/04/07 05:54:21;;;;;;;15.37;13.97;;;;;;;4.97;52.19;92511.94;5111451;28;20241;-76
2023/04/07 05:56:46;;;;;;;17.70;16.17;;;;;;;5.03;52.54;92530.88;5111908;28;20188;-77
2023/04/07 05:59:12;;;;;;;20.40;16.73;;;;;;;4.85;53.91;92526.06;5113789;28;20172;-75
2023/04/07 06:01:37;;;;;;;17.43;15.63;;;;;;;4.81;54.72;92546.47;5111852;28;20240;-76
2023/04/07 06:04:03;;;;;;;17.23;15.43;;;;;;;4.58;55.62;92515.72;5112814;28;20243;-76
2023/04/07 06:06:28;;;;;;;17.67;16.00;;;;;;;4.32;56.11;92520.88;5110193;28;20212;-76
2023/04/07 06:08:53;;;;;;;17.43;15.73;;;;;;;4.69;55.95;92532.91;5112329;28;20217;-76
2023/04/07 06:11:20;;;;;;;22.83;18.00;;;;;;;4.73;56.84;92513.28;5110917;28;20259;-76
2023/04/07 06:13:45;;;;;;;17.17;15.47;;;;;;;5.05;54.16;92538.38;5111159;28;20176;-76
2023/04/07 06:16:10;;;;;;;17.33;15.57;;;;;;;5.20;53.14;92533.34;5109583;28;20245;-76
2023/04/07 06:18:36;;;;;;;15.73;14.43;;;;;;;5.48;52.29;92541.56;5112604;28;20183;-76
2023/04/07 06:21:01;;;;;;;18.60;15.87;;;;;;;5.18;52.42;92533.59;5111559;28;20259;-75
2023/04/07 06:23:27;;;;;;;17.57;15.83;;;;;;;5.03;52.16;92517.16;5111293;28;20267;-76
2023/04/07 06:25:52;;;;;;;16.33;14.83;;;;;;;5.43;52.18;92540.75;5111906;28;20223;-75
2023/04/07 06:28:18;;;;;;;22.83;16.47;;;;;;;5.46;52.76;92522.13;5111630;28;20196;-76
2023/04/07 06:30:43;;;;;;;16.33;14.87;;;;;;;5.94;50.73;92532.28;5111406;28;20247;-74
2023/04/07 06:33:09;;;;;;;16.63;14.90;;;;;;;5.89;53.02;92529.66;5111504;28;20210;-76
2023/04/07 06:35:34;;;;;;;17.43;15.77;;;;;;;6.10;52.63;92534.66;5110854;28;20231;-76
2023/04/07 06:38:01;;;;;;;17.07;15.57;;;;;;;5.67;52.53;92487.53;5112600;28;20185;-75
2023/04/07 06:40:26;;;;;;;15.67;14.03;;;;;;;6.08;50.50;92521.22;5109678;28;20242;-75
2023/04/07 06:42:53;;;;;;;19.67;15.50;;;;;;;5.84;51.06;92524.44;5112247;28;20196;-74
2023/04/07 06:45:19;;;;;;;17.10;15.50;;;;;;;5.17;54.85;92533.84;5110008;28;20247;-75
2023/04/07 06:47:44;;;;;;;15.73;14.43;;;;;;;5.68;54.27;92533.91;5111627;28;20188;-75
2023/04/07 06:50:10;;;;;;;18.10;15.37;;;;;;;5.86;52.10;92514.63;5109888;28;20258;-73
2023/04/07 06:52:35;;;;;;;16.03;14.57;;;;;;;5.50;52.83;92525.78;5111136;28;20646;-76
2023/04/07 06:55:01;;;;;;;13.37;12.23;;;;;;;5.74;50.90;92545.09;5108918;28;20308;-75
2023/04/07 06:57:26;;;;;;;13.53;12.43;;;;;;;6.26;47.52;92532.91;5110676;28;20188;-75
2023/04/07 06:59:51;;;;;;;14.43;13.33;;;;;;;6.57;46.54;92528.63;5110357;28;20301;-75
2023/04/07 07:02:17;;;;;;;14.33;13.13;;;;;;;6.00;46.51;92539.81;5112478;28;20207;-75
2023/04/07 07:04:42;;;;;;;13.33;12.33;;;;;;;6.58;46.66;92525.78;5109981;28;20239;-76
2023/04/07 07:07:07;;;;;;;13.10;12.00;;;;;;;6.81;44.63;92538.28;5110274;28;20204;-73
2023/04/07 07:09:33;;;;;;;13.07;12.13;;;;;;;6.50;46.06;92528.88;5111839;28;20253;-75
2023/04/07 07:12:00;;;;;;;14.60;13.50;;;;;;;6.10;46.87;92555.41;5111556;28;20195;-75
2023/04/07 07:14:26;;;;;;;14.00;13.00;;;;;;;5.56;46.61;92537.72;5111015;28;20203;-75
2023/04/07 07:16:51;;;;;;;13.60;12.53;;;;;;;5.79;47.34;92548.47;5110857;28;20177;-75
2023/04/07 07:19:17;;;;;;;12.27;11.37;;;;;;;5.60;47.47;92533.63;5110432;28;20264;-76
2023/04/07 07:21:42;;;;;;;13.93;12.83;;;;;;;5.97;47.17;92509.25;5109705;28;20199;-75
2023/04/07 07:24:07;;;;;;;14.47;13.37;;;;;;;6.37;45.47;92543.09;5109209;28;20241;-75
2023/04/07 07:26:33;;;;;;;13.10;12.10;;;;;;;6.50;46.37;92534.84;5109800;28;20227;-75
2023/04/07 07:28:58;;;;;;;15.07;13.43;;;;;;;6.24;45.77;92545.38;5109996;28;20279;-75
2023/04/07 07:31:24;;;;;;;13.73;12.37;;;;;;;6.31;45.53;92551.09;5109955;28;20230;-76
2023/04/07 07:33:50;;;;;;;13.80;12.70;;;;;;;6.42;45.42;92563.06;5109196;28;20270;-75
2023/04/07 07:36:16;;;;;;;14.40;13.20;;;;;;;6.48;44.91;92530.94;5110134;28;20224;-75
2023/04/07 07:38:41;;;;;;;14.30;13.30;;;;;;;6.78;44.80;92550.97;5109155;28;20188;-75
2023/04/07 07:41:07;;;;;;;13.37;12.37;;;;;;;7.01;45.11;92553.88;5109084;28;20250;-75
2023/04/07 07:43:32;;;;;;;13.33;12.43;;;;;;;6.47;45.08;92576.06;5108664;28;20180;-75
2023/04/07 07:45:58;;;;;;;15.00;13.70;;;;;;;7.14;44.46;92587.13;5111502;28;20287;-75
2023/04/07 07:48:23;;;;;;;13.07;12.17;;;;;;;6.93;44.57;92590.69;5110257;28;20172;-76
2023/04/07 07:50:50;;;;;;;12.97;12.07;;;;;;;7.53;43.20;92590.00;5109942;28;20224;-74
2023/04/07 07:53:16;;;;;;;13.80;12.60;;;;;;;7.32;43.69;92593.59;5109926;28;20188;-75
2023/04/07 07:55:41;;;;;;;14.20;13.03;;;;;;;6.61;43.21;92586.72;5110143;28;20277;-75
2023/04/07 07:58:07;;;;;;;13.67;12.27;;;;;;;6.54;44.34;92569.59;5110253;28;20199;-75
2023/04/07 08:00:32;;;;;;;14.87;13.50;;;;;;;7.09;44.36;92583.72;5108747;28;20220;-75
2023/04/07 08:02:57;;;;;;;13.97;12.80;;;;;;;7.13;43.16;92564.78;5114086;28;20196;-76
2023/04/07 08:05:23;;;;;;;12.70;11.77;;;;;;;7.56;42.15;92586.88;5110008;28;20228;-75
2023/04/07 08:07:48;;;;;;;14.23;13.13;;;;;;;7.43;43.17;92585.56;5111335;28;20248;-73
2023/04/07 08:10:14;;;;;;;14.37;13.23;;;;;;;7.76;41.90;92595.44;5109822;28;20226;-75
2023/04/07 08:12:39;;;;;;;12.63;11.73;;;;;;;7.70;40.58;92554.91;5110683;28;20176;-75
2023/04/07 08:15:08;;;;;;;12.87;11.87;;;;;;;7.52;41.85;92578.81;5110618;28;20257;-75
2023/04/07 08:17:34;;;;;;;12.47;11.37;;;;;;;7.51;41.53;92577.28;5110107;28;20184;-75
2023/04/07 08:20:00;;;;;;;12.93;11.93;;;;;;;8.74;39.88;92564.50;5107722;28;20228;-75
2023/04/07 08:22:25;;;;;;;13.27;12.27;;;;;;;8.53;39.92;92583.88;5110090;28;20211;-75
2023/04/07 08:24:50;;;;;;;12.63;11.83;;;;;;;8.84;40.23;92556.66;5109830;28;20254;-74
2023/04/07 08:27:16;;;;;;;12.80;11.37;;;;;;;8.88;38.78;92581.09;5109409;28;20197;-76
2023/04/07 08:29:41;;;;;;;13.53;12.47;;;;;;;7.72;40.60;92580.66;5110378;28;20250;-74
2023/04/07 08:32:06;;;;;;;13.10;12.10;;;;;;;7.58;40.35;92557.00;5109571;28;20199;-75
2023/04/07 08:34:32;;;;;;;11.47;10.67;;;;;;;8.41;43.90;92570.34;5109569;28;20276;-76
2023/04/07 08:36:57;;;;;;;13.83;12.63;;;;;;;8.45;40.14;92561.00;5109293;28;20188;-76
2023/04/07 08:39:24;;;;;;;12.40;11.47;;;;;;;9.79;39.57;92577.59;5112603;28;21646;-76
2023/04/07 08:41:50;;;;;;;13.03;11.73;;;;;;;9.14;38.13;92561.66;5113013;28;20234;-76
2023/04/07 08:44:16;;;;;;;12.73;11.73;;;;;;;7.64;40.46;92565.56;5113627;28;20199;-75
2023/04/07 08:46:42;;;;;;;13.97;12.97;;;;;;;8.39;40.49;92575.06;5114327;28;20226;-75
2023/04/07 08:49:12;;;;;;;12.90;11.90;;;;;;;7.45;42.25;92562.72;5112545;28;20214;-75
2023/04/07 08:51:45;;;;;;;13.07;12.17;;;;;;;7.90;42.64;92569.69;5111869;28;20220;-75
2023/04/07 08:54:13;;;;;;;12.70;11.60;;;;;;;7.15;42.30;92551.53;5113839;28;20212;-76
2023/04/07 08:56:42;;;;;;;14.00;12.70;;;;;;;7.25;43.52;92562.72;5111788;28;20224;-75
2023/04/07 08:59:10;;;;;;;13.37;12.40;;;;;;;7.44;42.22;92581.19;5111590;28;20209;-76
2023/04/07 09:01:36;;;;;;;13.70;12.70;;;;;;;7.55;42.51;92567.91;5113094;28;20223;-75
2023/04/07 09:04:03;;;;;;;12.17;11.30;;;;;;;7.29;42.48;92586.34;5112583;28;20196;-76
2023/04/07 09:06:33;;;;;;;12.80;11.93;;;;;;;8.07;41.22;92583.97;5112438;28;20296;-74
2023/04/07 09:08:59;;;;;;;13.47;12.57;;;;;;;7.26;41.96;92584.25;5115183;28;20248;-75
2023/04/07 09:11:26;;;;;;;13.27;12.33;;;;;;;8.14;41.70;92576.66;5112921;28;20220;-75
2023/04/07 09:13:51;;;;;;;12.30;11.43;;;;;;;8.28;41.04;92550.88;5113261;28;20286;-75
2023/04/07 09:16:17;;;;;;;13.10;12.20;;;;;;;8.97;40.73;92569.06;5112107;28;20239;-75
2023/04/07 09:18:43;;;;;;;13.20;12.30;;;;;;;8.15;40.78;92564.44;5113229;28;20176;-75
2023/04/07 09:21:08;;;;;;;12.80;11.90;;;;;;;8.45;41.76;92553.19;5111491;28;20231;-75
2023/04/07 09:23:39;;;;;;;12.73;11.73;;;;;;;8.68;41.42;92547.34;5112721;28;20188;-75
2023/04/07 09:26:16;;;;;;;11.57;10.77;;;;;;;9.77;37.57;92578.94;5111466;28;20299;-75
2023/04/07 09:28:44;;;;;;;11.70;11.00;;;;;;;9.30;38.85;92578.75;5110843;28;20188;-76
2023/04/07 09:31:09;;;;;;;13.03;12.03;;;;;;;8.50;39.69;92566.94;5111598;28;20227;-75
2023/04/07 09:33:35;;;;;;;12.60;11.60;;;;;;;9.02;39.58;92577.63;5112283;28;20192;-75
2023/04/07 09:36:02;;;;;;;12.43;11.60;;;;;;;8.48;40.66;92586.47;5112704;28;20228;-74
2023/04/07 09:38:35;;;;;;;12.47;11.47;;;;;;;8.11;41.02;92584.97;5112310;28;20195;-75
2023/04/07 09:41:05;;;;;;;12.27;11.47;;;;;;;8.19;41.83;92575.84;5110032;28;20232;-75
2023/04/07 09:43:30;;;;;;;11.30;10.60;;;;;;;7.94;41.68;92574.09;5111078;28;20180;-76
2023/04/07 09:46:13;;;;;;;13.80;12.70;;;;;;;7.20;43.30;92560.13;5110953;28;20299;-75
2023/04/07 09:48:39;;;;;;;12.87;11.77;;;;;;;7.68;43.07;92577.78;5112045;28;20203;-74
2023/04/07 09:51:22;;;;;;;13.33;12.27;;;;;;;7.62;43.37;92588.44;5109926;28;20263;-76
2023/04/07 09:53:51;;;;;;;13.53;12.50;;;;;;;7.73;43.46;92577.78;5112509;28;20191;-75
2023/04/07 09:56:18;;;;;;;12.87;11.87;;;;;;;7.66;43.63;92587.66;5110782;28;20247;-75
2023/04/07 09:58:45;;;;;;;14.43;13.20;;;;;;;7.31;44.72;92592.84;5128501;27;20188;-76
2023/04/07 10:01:12;;;;;;;14.57;13.17;;;;;;;7.35;44.87;92582.69;5110250;28;20231;-75
2023/04/07 10:03:38;;;;;;;13.20;12.10;;;;;;;8.41;43.11;92591.16;5111745;28;20184;-75
2023/04/07 10:06:05;;;;;;;13.33;12.13;;;;;;;8.09;42.02;92568.84;5108598;28;20230;-75
2023/04/07 10:08:33;;;;;;;12.53;11.67;;;;;;;8.18;41.19;92589.91;5111217;28;20169;-75
2023/04/07 10:11:00;;;;;;;13.63;12.57;;;;;;;7.73;43.28;92590.78;5111058;28;20227;-75
2023/04/07 10:13:27;;;;;;;13.73;12.73;;;;;;;8.09;42.39;92594.09;5111691;28;20208;-75
2023/04/07 10:15:54;;;;;;;13.93;12.73;;;;;;;7.83;43.96;92587.38;5110918;28;20220;-74
2023/04/07 10:18:20;;;;;;;12.00;10.83;;;;;;;8.92;40.59;92561.28;5111215;28;20184;-75
2023/04/07 10:20:48;;;;;;;14.83;13.63;;;;;;;8.17;41.76;92570.94;5111503;28;20237;-75
2023/04/07 10:23:38;;;;;;;15.23;13.93;;;;;;;8.27;41.95;92590.16;5111597;28;20184;-75
2023/04/07 10:26:06;;;;;;;13.67;12.77;;;;;;;8.58;41.57;92550.00;5101368;28;20253;-75
2023/04/07 10:28:34;;;;;;;13.40;12.33;;;;;;;8.43;42.43;92569.06;5111515;28;20184;-75
2023/04/07 10:30:59;;;;;;;13.70;12.63;;;;;;;8.47;41.80;92582.31;5112347;28;20235;-75
2023/04/07 10:33:51;;;;;;;13.27;12.17;;;;;;;8.28;43.27;92596.94;5111183;28;20255;-76
2023/04/07 10:36:19;;;;;;;13.60;12.60;;;;;;;8.52;43.16;92597.91;5110726;28;20212;-75
2023/04/07 10:39:06;;;;;;;13.77;12.63;;;;;;;8.48;42.19;92607.28;5127305;28;20293;-75
2023/04/07 10:41:38;;;;;;;14.97;12.43;;;;;;;8.11;42.28;92608.38;5109863;28;20235;-76
2023/04/07 10:44:05;;;;;;;11.87;10.97;;;;;;;7.64;43.34;92607.16;5110619;28;20172;-75
2023/04/07 10:46:50;;;;;;;12.43;11.53;;;;;;;7.83;43.10;92606.34;5112253;28;20250;-75
2023/04/07 10:49:16;;;;;;;12.30;11.30;;;;;;;8.78;42.06;92596.78;5110551;28;20191;-75
2023/04/07 10:51:42;;;;;;;11.90;11.00;;;;;;;9.19;41.54;92604.09;5108735;28;20220;-75
2023/04/07 10:54:15;;;;;;;12.50;11.50;;;;;;;8.33;42.20;92602.13;5110377;28;20260;-75
2023/04/07 10:57:02;;;;;;;12.07;11.23;;;;;;;7.54;43.37;92607.91;5109153;28;20207;-74
2023/04/07 10:59:32;;;;;;;14.23;13.13;;;;;;;7.44;42.74;92613.09;5109950;27;20217;-75
2023/04/07 11:02:21;;;;;;;13.30;12.10;;;;;;;8.05;43.71;92612.03;5108711;28;20228;-74
2023/04/07 11:04:46;;;;;;;12.10;11.17;;;;;;;8.71;41.76;92597.06;5100303;28;20315;-75
2023/04/07 11:07:13;;;;;;;13.97;12.93;;;;;;;8.25;43.55;92610.47;5111433;28;20199;-76
2023/04/07 11:09:42;;;;;;;13.43;12.33;;;;;;;8.00;44.49;92612.03;5111578;28;20222;-75
2023/04/07 11:12:20;;;;;;;14.23;13.13;;;;;;;7.84;45.78;92602.69;5110011;28;20217;-75
2023/04/07 11:14:46;;;;;;;14.67;13.47;;;;;;;8.19;46.46;92620.06;5109260;27;20256;-75
2023/04/07 11:17:14;;;;;;;13.93;12.63;;;;;;;8.46;46.21;92615.34;5111145;28;20291;-75
2023/04/07 11:19:52;;;;;;;13.00;12.00;;;;;;;8.43;44.68;92620.31;5109998;28;20222;-75
2023/04/07 11:22:18;;;;;;;14.60;13.37;;;;;;;7.83;45.18;92575.16;5109087;28;20187;-75